sensor_id;sensor_type;location;lat;lon;timestamp;P1;durP1;ratioP1;P2;durP2;ratioP2
24857;SDS011;12935;50.782;6.074;2023-04-25T00:02:20;18.43;;;4.00;;
24857;SDS011;12935;50.782;6.074;2023-04-25T00:04:45;15.27;;;3.80;;
24857;SDS011;12935;50.782;6.074;2023-04-25T00:07:11;22.67;;;4.73;;
24857;SDS011;12935;50.782;6.074;2023-04-25T00:09:36;32.10;;;5.47;;
24857;SDS011;12935;50.782;6.074;2023-04-25T00:12:02;16.90;;;4.20;;
24857;SDS011;12935;50.782;6.074;2023-04-25T00:14:27;18.00;;;4.10;;
24857;SDS011;12935;50.782;6.074;2023-04-25T00:16:52;19.90;;;4.07;;
24857;SDS011;12935;50.782;6.074;2023-04-25T00:19:19;18.13;;;3.75;;
24857;SDS011;12935;50.782;6.074;2023-04-25T00:21:44;22.07;;;4.53;;
24857;SDS011;12935;50.782;6.074;2023-04-25T00:24:11;17.83;;;4.65;;
24857;SDS011;12935;50.782;6.074;2023-04-25T00:26:36;18.03;;;3.80;;
24857;SDS011;12935;50.782;6.074;2023-04-25T00:29:01;17.07;;;3.77;;
24857;SDS011;12935;50.782;6.074;2023-04-25T00:31:27;15.67;;;3.87;;
24857;SDS011;12935;50.782;6.074;2023-04-25T00:33:54;14.40;;;3.58;;
24857;SDS011;12935;50.782;6.074;2023-04-25T00:36:19;19.17;;;4.10;;
24857;SDS011;12935;50.782;6.074;2023-04-25T00:38:45;23.83;;;4.27;;
24857;SDS011;12935;50.782;6.074;2023-04-25T00:41:10;25.37;;;4.90;;
24857;SDS011;12935;50.782;6.074;2023-04-25T00:43:36;21.83;;;4.17;;
24857;SDS011;12935;50.782;6.074;2023-04-25T00:46:02;19.70;;;3.85;;
24857;SDS011;12935;50.782;6.074;2023-04-25T00:48:27;14.13;;;3.43;;
24857;SDS011;12935;50.782;6.074;2023-04-25T00:50:53;11.20;;;3.60;;
24857;SDS011;12935;50.782;6.074;2023-04-25T00:53:23;27.02;;;5.05;;
24857;SDS011;12935;50.782;6.074;2023-04-25T00:55:50;19.75;;;4.07;;
24857;SDS011;12935;50.782;6.074;2023-04-25T00:58:19;16.00;;;3.47;;
24857;SDS011;12935;50.782;6.074;2023-04-25T01:00:46;19.52;;;4.63;;
24857;SDS011;12935;50.782;6.074;2023-04-25T01:03:16;24.17;;;4.80;;
24857;SDS011;12935;50.782;6.074;2023-04-25T01:05:44;18.45;;;4.22;;
24857;SDS011;12935;50.782;6.074;2023-04-25T01:08:10;18.50;;;4.03;;
24857;SDS011;12935;50.782;6.074;2023-04-25T01:10:35;22.13;;;4.43;;
24857;SDS011;12935;50.782;6.074;2023-04-25T01:13:01;24.87;;;4.73;;
24857;SDS011;12935;50.782;6.074;2023-04-25T01:15:27;18.47;;;3.83;;
24857;SDS011;12935;50.782;6.074;2023-04-25T01:17:53;22.83;;;4.93;;
24857;SDS011;12935;50.782;6.074;2023-04-25T01:20:20;22.38;;;4.80;;
24857;SDS011;12935;50.782;6.074;2023-04-25T01:22:47;42.88;;;4.60;;
24857;SDS011;12935;50.782;6.074;2023-04-25T01:25:13;34.60;;;6.30;;
24857;SDS011;12935;50.782;6.074;2023-04-25T01:27:39;11.73;;;3.17;;
24857;SDS011;12935;50.782;6.074;2023-04-25T01:30:05;13.43;;;3.13;;
24857;SDS011;12935;50.782;6.074;2023-04-25T01:32:31;19.23;;;3.97;;
24857;SDS011;12935;50.782;6.074;2023-04-25T01:35:04;20.83;;;4.85;;
24857;SDS011;12935;50.782;6.074;2023-04-25T01:37:34;23.77;;;6.20;;
24857;SDS011;12935;50.782;6.074;2023-04-25T01:40:09;16.67;;;3.95;;
24857;SDS011;12935;50.782;6.074;2023-04-25T01:42:37;22.75;;;4.15;;
24857;SDS011;12935;50.782;6.074;2023-04-25T01:45:05;18.00;;;3.70;;
24857;SDS011;12935;50.782;6.074;2023-04-25T01:47:31;19.60;;;4.15;;
24857;SDS011;12935;50.782;6.074;2023-04-25T01:49:57;19.27;;;4.30;;
24857;SDS011;12935;50.782;6.074;2023-04-25T01:52:22;16.10;;;3.63;;
24857;SDS011;12935;50.782;6.074;2023-04-25T01:54:48;13.57;;;3.30;;
24857;SDS011;12935;50.782;6.074;2023-04-25T01:57:14;27.35;;;4.80;;
24857;SDS011;12935;50.782;6.074;2023-04-25T01:59:40;18.17;;;4.00;;
24857;SDS011;12935;50.782;6.074;2023-04-25T02:02:06;21.67;;;4.27;;
24857;SDS011;12935;50.782;6.074;2023-04-25T02:04:31;26.63;;;5.37;;
24857;SDS011;12935;50.782;6.074;2023-04-25T02:06:57;54.70;;;7.33;;
24857;SDS011;12935;50.782;6.074;2023-04-25T02:09:22;19.50;;;4.83;;
24857;SDS011;12935;50.782;6.074;2023-04-25T02:11:48;14.23;;;3.70;;
24857;SDS011;12935;50.782;6.074;2023-04-25T02:14:13;12.73;;;3.60;;
24857;SDS011;12935;50.782;6.074;2023-04-25T02:16:39;28.47;;;5.17;;
24857;SDS011;12935;50.782;6.074;2023-04-25T02:19:05;26.50;;;4.87;;
24857;SDS011;12935;50.782;6.074;2023-04-25T02:21:30;19.13;;;4.20;;
24857;SDS011;12935;50.782;6.074;2023-04-25T02:23:56;17.43;;;4.03;;
24857;SDS011;12935;50.782;6.074;2023-04-25T02:26:21;20.40;;;4.37;;
24857;SDS011;12935;50.782;6.074;2023-04-25T02:28:48;20.20;;;4.20;;
24857;SDS011;12935;50.782;6.074;2023-04-25T02:31:14;22.83;;;6.53;;
24857;SDS011;12935;50.782;6.074;2023-04-25T02:33:40;20.50;;;4.07;;
24857;SDS011;12935;50.782;6.074;2023-04-25T02:36:05;19.73;;;4.57;;
24857;SDS011;12935;50.782;6.074;2023-04-25T02:38:31;18.10;;;4.00;;
24857;SDS011;12935;50.782;6.074;2023-04-25T02:40:56;13.57;;;3.30;;
24857;SDS011;12935;50.782;6.074;2023-04-25T02:43:21;17.17;;;3.57;;
24857;SDS011;12935;50.782;6.074;2023-04-25T02:45:47;17.30;;;3.50;;
24857;SDS011;12935;50.782;6.074;2023-04-25T02:48:12;19.17;;;3.97;;
24857;SDS011;12935;50.782;6.074;2023-04-25T02:50:37;11.17;;;2.93;;
24857;SDS011;12935;50.782;6.074;2023-04-25T02:53:02;15.73;;;3.80;;
24857;SDS011;12935;50.782;6.074;2023-04-25T02:55:28;41.60;;;6.67;;
24857;SDS011;12935;50.782;6.074;2023-04-25T02:57:53;20.63;;;4.53;;
24857;SDS011;12935;50.782;6.074;2023-04-25T03:00:20;30.02;;;5.13;;
24857;SDS011;12935;50.782;6.074;2023-04-25T03:02:46;28.53;;;5.50;;
24857;SDS011;12935;50.782;6.074;2023-04-25T03:05:11;11.63;;;3.50;;
24857;SDS011;12935;50.782;6.074;2023-04-25T03:07:36;16.53;;;4.03;;
24857;SDS011;12935;50.782;6.074;2023-04-25T03:10:02;17.00;;;3.27;;
24857;SDS011;12935;50.782;6.074;2023-04-25T03:12:27;15.87;;;3.83;;
24857;SDS011;12935;50.782;6.074;2023-04-25T03:14:52;21.13;;;4.27;;
24857;SDS011;12935;50.782;6.074;2023-04-25T03:17:18;22.23;;;4.30;;
24857;SDS011;12935;50.782;6.074;2023-04-25T03:19:43;16.30;;;3.90;;
24857;SDS011;12935;50.782;6.074;2023-04-25T03:22:08;18.00;;;3.77;;
24857;SDS011;12935;50.782;6.074;2023-04-25T03:24:33;10.83;;;3.20;;
24857;SDS011;12935;50.782;6.074;2023-04-25T03:26:59;23.17;;;4.40;;
24857;SDS011;12935;50.782;6.074;2023-04-25T03:29:25;40.88;;;8.30;;
24857;SDS011;12935;50.782;6.074;2023-04-25T03:31:52;33.58;;;6.30;;
24857;SDS011;12935;50.782;6.074;2023-04-25T03:34:17;20.97;;;4.33;;
24857;SDS011;12935;50.782;6.074;2023-04-25T03:36:43;19.07;;;4.53;;
24857;SDS011;12935;50.782;6.074;2023-04-25T03:39:08;15.30;;;3.73;;
24857;SDS011;12935;50.782;6.074;2023-04-25T03:41:33;14.23;;;3.20;;
24857;SDS011;12935;50.782;6.074;2023-04-25T03:43:59;24.47;;;4.67;;
24857;SDS011;12935;50.782;6.074;2023-04-25T03:46:24;20.70;;;4.60;;
24857;SDS011;12935;50.782;6.074;2023-04-25T03:48:49;20.63;;;4.27;;
24857;SDS011;12935;50.782;6.074;2023-04-25T03:51:15;16.60;;;3.77;;
24857;SDS011;12935;50.782;6.074;2023-04-25T03:53:40;22.63;;;5.37;;
24857;SDS011;12935;50.782;6.074;2023-04-25T03:56:06;19.00;;;4.33;;
24857;SDS011;12935;50.782;6.074;2023-04-25T03:58:31;23.60;;;4.27;;
24857;SDS011;12935;50.782;6.074;2023-04-25T04:00:56;27.47;;;5.17;;
24857;SDS011;12935;50.782;6.074;2023-04-25T04:03:22;36.50;;;5.73;;
24857;SDS011;12935;50.782;6.074;2023-04-25T04:05:47;12.60;;;3.20;;
24857;SDS011;12935;50.782;6.074;2023-04-25T04:08:12;14.20;;;3.37;;
24857;SDS011;12935;50.782;6.074;2023-04-25T04:10:38;28.17;;;5.83;;
24857;SDS011;12935;50.782;6.074;2023-04-25T04:13:03;25.43;;;4.43;;
24857;SDS011;12935;50.782;6.074;2023-04-25T04:15:28;33.47;;;6.30;;
24857;SDS011;12935;50.782;6.074;2023-04-25T04:17:53;18.67;;;3.97;;
24857;SDS011;12935;50.782;6.074;2023-04-25T04:20:19;24.13;;;4.27;;
24857;SDS011;12935;50.782;6.074;2023-04-25T04:22:45;14.17;;;3.27;;
24857;SDS011;12935;50.782;6.074;2023-04-25T04:25:10;13.43;;;3.03;;
24857;SDS011;12935;50.782;6.074;2023-04-25T04:27:36;22.77;;;4.28;;
24857;SDS011;12935;50.782;6.074;2023-04-25T04:30:02;18.33;;;3.57;;
24857;SDS011;12935;50.782;6.074;2023-04-25T04:32:28;24.07;;;4.43;;
24857;SDS011;12935;50.782;6.074;2023-04-25T04:34:55;20.08;;;4.72;;
24857;SDS011;12935;50.782;6.074;2023-04-25T04:37:20;12.93;;;3.13;;
24857;SDS011;12935;50.782;6.074;2023-04-25T04:39:46;14.03;;;3.47;;
24857;SDS011;12935;50.782;6.074;2023-04-25T04:42:12;10.73;;;2.87;;
24857;SDS011;12935;50.782;6.074;2023-04-25T04:44:37;24.93;;;5.10;;
24857;SDS011;12935;50.782;6.074;2023-04-25T04:47:03;32.20;;;5.57;;
24857;SDS011;12935;50.782;6.074;2023-04-25T04:49:31;30.92;;;6.00;;
24857;SDS011;12935;50.782;6.074;2023-04-25T04:51:56;30.17;;;4.13;;
24857;SDS011;12935;50.782;6.074;2023-04-25T04:54:21;19.07;;;3.70;;
24857;SDS011;12935;50.782;6.074;2023-04-25T04:56:47;15.70;;;4.87;;
24857;SDS011;12935;50.782;6.074;2023-04-25T04:59:12;38.40;;;6.60;;
24857;SDS011;12935;50.782;6.074;2023-04-25T05:01:37;31.07;;;5.67;;
24857;SDS011;12935;50.782;6.074;2023-04-25T05:04:03;30.13;;;4.30;;
24857;SDS011;12935;50.782;6.074;2023-04-25T05:06:28;18.33;;;3.73;;
24857;SDS011;12935;50.782;6.074;2023-04-25T05:08:54;21.10;;;4.83;;
24857;SDS011;12935;50.782;6.074;2023-04-25T05:11:20;17.40;;;3.67;;
24857;SDS011;12935;50.782;6.074;2023-04-25T05:13:46;18.02;;;6.05;;
24857;SDS011;12935;50.782;6.074;2023-04-25T05:16:12;43.22;;;4.30;;
24857;SDS011;12935;50.782;6.074;2023-04-25T05:18:38;38.93;;;7.00;;
24857;SDS011;12935;50.782;6.074;2023-04-25T05:21:04;19.38;;;4.03;;
24857;SDS011;12935;50.782;6.074;2023-04-25T05:23:30;20.10;;;5.17;;
24857;SDS011;12935;50.782;6.074;2023-04-25T05:25:56;30.50;;;4.47;;
24857;SDS011;12935;50.782;6.074;2023-04-25T05:28:21;21.07;;;3.83;;
24857;SDS011;12935;50.782;6.074;2023-04-25T05:30:47;28.70;;;5.57;;
24857;SDS011;12935;50.782;6.074;2023-04-25T05:33:12;21.87;;;4.50;;
24857;SDS011;12935;50.782;6.074;2023-04-25T05:35:38;20.23;;;4.17;;
24857;SDS011;12935;50.782;6.074;2023-04-25T05:38:03;18.97;;;3.73;;
24857;SDS011;12935;50.782;6.074;2023-04-25T05:40:28;25.47;;;5.40;;
24857;SDS011;12935;50.782;6.074;2023-04-25T05:42:54;27.23;;;5.30;;
24857;SDS011;12935;50.782;6.074;2023-04-25T05:45:19;19.53;;;3.93;;
24857;SDS011;12935;50.782;6.074;2023-04-25T05:47:44;17.67;;;3.30;;
24857;SDS011;12935;50.782;6.074;2023-04-25T05:50:10;31.93;;;4.50;;
24857;SDS011;12935;50.782;6.074;2023-04-25T05:52:35;17.40;;;3.70;;
24857;SDS011;12935;50.782;6.074;2023-04-25T05:55:00;24.23;;;5.60;;
24857;SDS011;12935;50.782;6.074;2023-04-25T05:57:26;17.70;;;4.17;;
24857;SDS011;12935;50.782;6.074;2023-04-25T05:59:52;21.67;;;4.15;;
24857;SDS011;12935;50.782;6.074;2023-04-25T06:02:18;31.90;;;5.00;;
24857;SDS011;12935;50.782;6.074;2023-04-25T06:04:45;28.27;;;5.05;;
24857;SDS011;12935;50.782;6.074;2023-04-25T06:07:11;16.23;;;3.63;;
24857;SDS011;12935;50.782;6.074;2023-04-25T06:09:36;28.00;;;5.57;;
24857;SDS011;12935;50.782;6.074;2023-04-25T06:12:03;19.92;;;4.15;;
24857;SDS011;12935;50.782;6.074;2023-04-25T06:14:29;30.90;;;6.07;;
24857;SDS011;12935;50.782;6.074;2023-04-25T06:16:55;28.87;;;4.27;;
24857;SDS011;12935;50.782;6.074;2023-04-25T06:19:20;30.27;;;6.23;;
24857;SDS011;12935;50.782;6.074;2023-04-25T06:21:46;17.20;;;4.00;;
24857;SDS011;12935;50.782;6.074;2023-04-25T06:24:11;21.03;;;4.23;;
24857;SDS011;12935;50.782;6.074;2023-04-25T06:26:36;24.60;;;4.67;;
24857;SDS011;12935;50.782;6.074;2023-04-25T06:29:01;21.73;;;4.20;;
24857;SDS011;12935;50.782;6.074;2023-04-25T06:31:27;19.97;;;4.30;;
24857;SDS011;12935;50.782;6.074;2023-04-25T06:33:53;31.63;;;5.20;;
24857;SDS011;12935;50.782;6.074;2023-04-25T06:36:20;24.07;;;4.17;;
24857;SDS011;12935;50.782;6.074;2023-04-25T06:38:49;16.80;;;3.83;;
24857;SDS011;12935;50.782;6.074;2023-04-25T06:41:18;22.98;;;5.38;;
24857;SDS011;12935;50.782;6.074;2023-04-25T06:43:43;20.97;;;4.27;;
24857;SDS011;12935;50.782;6.074;2023-04-25T06:46:09;23.93;;;4.83;;
24857;SDS011;12935;50.782;6.074;2023-04-25T06:48:34;20.50;;;4.23;;
24857;SDS011;12935;50.782;6.074;2023-04-25T06:51:00;22.50;;;5.77;;
24857;SDS011;12935;50.782;6.074;2023-04-25T06:53:25;18.93;;;4.40;;
24857;SDS011;12935;50.782;6.074;2023-04-25T06:55:50;17.60;;;3.70;;
24857;SDS011;12935;50.782;6.074;2023-04-25T06:58:16;26.03;;;5.00;;
24857;SDS011;12935;50.782;6.074;2023-04-25T07:00:41;36.40;;;4.00;;
24857;SDS011;12935;50.782;6.074;2023-04-25T07:03:07;23.57;;;5.50;;
24857;SDS011;12935;50.782;6.074;2023-04-25T07:05:32;25.43;;;6.17;;
24857;SDS011;12935;50.782;6.074;2023-04-25T07:07:57;22.67;;;4.50;;
24857;SDS011;12935;50.782;6.074;2023-04-25T07:10:22;23.90;;;4.87;;
24857;SDS011;12935;50.782;6.074;2023-04-25T07:12:48;12.90;;;3.33;;
24857;SDS011;12935;50.782;6.074;2023-04-25T07:15:13;18.23;;;4.03;;
24857;SDS011;12935;50.782;6.074;2023-04-25T07:17:38;31.37;;;5.70;;
24857;SDS011;12935;50.782;6.074;2023-04-25T07:20:04;22.73;;;5.47;;
24857;SDS011;12935;50.782;6.074;2023-04-25T07:22:31;22.23;;;4.80;;
24857;SDS011;12935;50.782;6.074;2023-04-25T07:24:57;23.88;;;5.38;;
24857;SDS011;12935;50.782;6.074;2023-04-25T07:27:22;22.80;;;4.47;;
24857;SDS011;12935;50.782;6.074;2023-04-25T07:29:47;12.27;;;3.00;;
24857;SDS011;12935;50.782;6.074;2023-04-25T07:32:13;15.03;;;3.93;;
24857;SDS011;12935;50.782;6.074;2023-04-25T07:34:38;20.33;;;4.53;;
24857;SDS011;12935;50.782;6.074;2023-04-25T07:37:04;16.10;;;5.20;;
24857;SDS011;12935;50.782;6.074;2023-04-25T07:39:30;34.13;;;6.27;;
24857;SDS011;12935;50.782;6.074;2023-04-25T07:41:55;16.80;;;3.77;;
24857;SDS011;12935;50.782;6.074;2023-04-25T07:44:21;19.43;;;5.20;;
24857;SDS011;12935;50.782;6.074;2023-04-25T07:46:46;15.00;;;4.70;;
24857;SDS011;12935;50.782;6.074;2023-04-25T07:49:12;27.87;;;5.17;;
24857;SDS011;12935;50.782;6.074;2023-04-25T07:51:37;20.73;;;4.33;;
24857;SDS011;12935;50.782;6.074;2023-04-25T07:54:02;18.30;;;3.87;;
24857;SDS011;12935;50.782;6.074;2023-04-25T07:56:27;16.60;;;4.70;;
24857;SDS011;12935;50.782;6.074;2023-04-25T07:58:53;17.50;;;4.10;;
24857;SDS011;12935;50.782;6.074;2023-04-25T08:01:18;49.00;;;6.43;;
24857;SDS011;12935;50.782;6.074;2023-04-25T08:03:45;24.95;;;6.13;;
24857;SDS011;12935;50.782;6.074;2023-04-25T08:06:11;18.93;;;4.10;;
24857;SDS011;12935;50.782;6.074;2023-04-25T08:08:36;16.53;;;3.77;;
24857;SDS011;12935;50.782;6.074;2023-04-25T08:11:01;25.47;;;4.90;;
24857;SDS011;12935;50.782;6.074;2023-04-25T08:13:27;19.97;;;4.70;;
24857;SDS011;12935;50.782;6.074;2023-04-25T08:15:52;26.97;;;5.83;;
24857;SDS011;12935;50.782;6.074;2023-04-25T08:18:17;20.60;;;5.00;;
24857;SDS011;12935;50.782;6.074;2023-04-25T08:20:43;26.47;;;5.00;;
24857;SDS011;12935;50.782;6.074;2023-04-25T08:23:08;16.37;;;5.10;;
24857;SDS011;12935;50.782;6.074;2023-04-25T08:25:33;31.23;;;6.00;;
24857;SDS011;12935;50.782;6.074;2023-04-25T08:27:58;19.70;;;4.83;;
24857;SDS011;12935;50.782;6.074;2023-04-25T08:30:24;13.93;;;3.10;;
24857;SDS011;12935;50.782;6.074;2023-04-25T08:32:49;26.27;;;5.20;;
24857;SDS011;12935;50.782;6.074;2023-04-25T08:35:15;21.40;;;6.40;;
24857;SDS011;12935;50.782;6.074;2023-04-25T08:37:42;14.60;;;4.18;;
24857;SDS011;12935;50.782;6.074;2023-04-25T08:40:07;14.90;;;4.27;;
24857;SDS011;12935;50.782;6.074;2023-04-25T08:42:38;20.73;;;4.57;;
24857;SDS011;12935;50.782;6.074;2023-04-25T08:45:06;19.27;;;4.60;;
24857;SDS011;12935;50.782;6.074;2023-04-25T08:47:32;14.75;;;3.67;;
24857;SDS011;12935;50.782;6.074;2023-04-25T08:49:59;22.42;;;4.95;;
24857;SDS011;12935;50.782;6.074;2023-04-25T08:52:25;20.70;;;4.47;;
24857;SDS011;12935;50.782;6.074;2023-04-25T08:54:53;15.32;;;3.95;;
24857;SDS011;12935;50.782;6.074;2023-04-25T08:57:20;24.65;;;5.15;;
24857;SDS011;12935;50.782;6.074;2023-04-25T08:59:46;16.70;;;4.20;;
24857;SDS011;12935;50.782;6.074;2023-04-25T09:02:12;14.73;;;5.13;;
24857;SDS011;12935;50.782;6.074;2023-04-25T09:04:42;27.90;;;6.25;;
24857;SDS011;12935;50.782;6.074;2023-04-25T09:07:08;21.23;;;5.45;;
24857;SDS011;12935;50.782;6.074;2023-04-25T09:09:34;33.43;;;6.60;;
24857;SDS011;12935;50.782;6.074;2023-04-25T09:12:00;19.15;;;4.38;;
24857;SDS011;12935;50.782;6.074;2023-04-25T09:14:26;17.93;;;4.10;;
24857;SDS011;12935;50.782;6.074;2023-04-25T09:19:24;23.13;;;5.03;;
24857;SDS011;12935;50.782;6.074;2023-04-25T09:21:56;17.73;;;4.63;;
24857;SDS011;12935;50.782;6.074;2023-04-25T09:24:29;15.38;;;4.47;;
24857;SDS011;12935;50.782;6.074;2023-04-25T09:26:55;14.25;;;3.85;;
24857;SDS011;12935;50.782;6.074;2023-04-25T09:29:24;26.37;;;5.87;;
24857;SDS011;12935;50.782;6.074;2023-04-25T09:31:57;24.85;;;4.70;;
24857;SDS011;12935;50.782;6.074;2023-04-25T09:34:39;16.25;;;3.50;;
24857;SDS011;12935;50.782;6.074;2023-04-25T09:37:05;21.63;;;4.40;;
24857;SDS011;12935;50.782;6.074;2023-04-25T09:39:32;42.47;;;7.60;;
24857;SDS011;12935;50.782;6.074;2023-04-25T09:41:58;27.30;;;5.63;;
24857;SDS011;12935;50.782;6.074;2023-04-25T09:44:24;20.58;;;4.97;;
24857;SDS011;12935;50.782;6.074;2023-04-25T09:46:49;18.93;;;5.07;;
24857;SDS011;12935;50.782;6.074;2023-04-25T09:49:19;15.63;;;3.97;;
24857;SDS011;12935;50.782;6.074;2023-04-25T09:51:58;21.90;;;4.82;;
24857;SDS011;12935;50.782;6.074;2023-04-25T09:54:24;22.60;;;5.22;;
24857;SDS011;12935;50.782;6.074;2023-04-25T09:56:51;21.73;;;4.57;;
24857;SDS011;12935;50.782;6.074;2023-04-25T09:59:21;19.58;;;4.45;;
24857;SDS011;12935;50.782;6.074;2023-04-25T10:01:48;15.90;;;4.75;;
24857;SDS011;12935;50.782;6.074;2023-04-25T10:04:16;18.70;;;4.25;;
24857;SDS011;12935;50.782;6.074;2023-04-25T10:06:45;16.98;;;3.80;;
24857;SDS011;12935;50.782;6.074;2023-04-25T10:09:14;13.07;;;3.65;;
24857;SDS011;12935;50.782;6.074;2023-04-25T10:11:40;16.73;;;3.95;;
24857;SDS011;12935;50.782;6.074;2023-04-25T10:14:06;23.07;;;5.73;;
24857;SDS011;12935;50.782;6.074;2023-04-25T10:16:31;20.80;;;4.20;;
24857;SDS011;12935;50.782;6.074;2023-04-25T10:18:57;15.23;;;4.13;;
24857;SDS011;12935;50.782;6.074;2023-04-25T10:21:22;16.83;;;3.80;;
24857;SDS011;12935;50.782;6.074;2023-04-25T10:23:49;13.32;;;3.50;;
24857;SDS011;12935;50.782;6.074;2023-04-25T10:26:15;33.83;;;6.60;;
24857;SDS011;12935;50.782;6.074;2023-04-25T10:28:57;28.77;;;7.82;;
24857;SDS011;12935;50.782;6.074;2023-04-25T10:31:24;23.43;;;6.00;;
24857;SDS011;12935;50.782;6.074;2023-04-25T10:33:50;20.30;;;5.60;;
24857;SDS011;12935;50.782;6.074;2023-04-25T10:36:19;14.83;;;4.50;;
24857;SDS011;12935;50.782;6.074;2023-04-25T10:38:47;21.17;;;5.50;;
24857;SDS011;12935;50.782;6.074;2023-04-25T10:41:13;25.33;;;6.13;;
24857;SDS011;12935;50.782;6.074;2023-04-25T10:43:42;19.90;;;6.90;;
24857;SDS011;12935;50.782;6.074;2023-04-25T10:48:48;14.73;;;5.13;;
24857;SDS011;12935;50.782;6.074;2023-04-25T10:51:21;17.52;;;5.45;;
24857;SDS011;12935;50.782;6.074;2023-04-25T10:53:58;13.87;;;4.87;;
24857;SDS011;12935;50.782;6.074;2023-04-25T10:56:48;23.90;;;6.22;;
24857;SDS011;12935;50.782;6.074;2023-04-25T10:59:14;53.63;;;8.25;;
24857;SDS011;12935;50.782;6.074;2023-04-25T11:01:42;18.70;;;5.37;;
24857;SDS011;12935;50.782;6.074;2023-04-25T11:04:26;21.60;;;5.85;;
24857;SDS011;12935;50.782;6.074;2023-04-25T11:09:35;34.70;;;7.53;;
24857;SDS011;12935;50.782;6.074;2023-04-25T11:12:02;12.07;;;5.25;;
24857;SDS011;12935;50.782;6.074;2023-04-25T11:14:28;24.20;;;5.33;;
24857;SDS011;12935;50.782;6.074;2023-04-25T11:16:54;18.57;;;5.53;;
24857;SDS011;12935;50.782;6.074;2023-04-25T11:19:23;27.10;;;6.63;;
24857;SDS011;12935;50.782;6.074;2023-04-25T11:21:49;19.40;;;5.67;;
24857;SDS011;12935;50.782;6.074;2023-04-25T11:24:18;21.40;;;5.43;;
24857;SDS011;12935;50.782;6.074;2023-04-25T11:26:46;32.63;;;6.70;;
24857;SDS011;12935;50.782;6.074;2023-04-25T11:29:12;29.77;;;6.97;;
24857;SDS011;12935;50.782;6.074;2023-04-25T11:31:37;18.20;;;4.97;;
24857;SDS011;12935;50.782;6.074;2023-04-25T11:34:03;19.10;;;5.20;;
24857;SDS011;12935;50.782;6.074;2023-04-25T11:36:28;15.10;;;4.23;;
24857;SDS011;12935;50.782;6.074;2023-04-25T11:38:53;34.53;;;6.60;;
24857;SDS011;12935;50.782;6.074;2023-04-25T11:41:19;20.00;;;5.43;;
24857;SDS011;12935;50.782;6.074;2023-04-25T11:43:47;26.58;;;5.55;;
24857;SDS011;12935;50.782;6.074;2023-04-25T11:46:13;18.90;;;4.40;;
24857;SDS011;12935;50.782;6.074;2023-04-25T11:48:39;21.67;;;5.87;;
24857;SDS011;12935;50.782;6.074;2023-04-25T11:51:07;18.45;;;4.45;;
24857;SDS011;12935;50.782;6.074;2023-04-25T11:53:33;10.20;;;3.97;;
24857;SDS011;12935;50.782;6.074;2023-04-25T11:55:59;19.93;;;5.17;;
24857;SDS011;12935;50.782;6.074;2023-04-25T11:58:25;24.60;;;4.75;;
24857;SDS011;12935;50.782;6.074;2023-04-25T12:00:51;19.00;;;4.90;;
24857;SDS011;12935;50.782;6.074;2023-04-25T12:03:17;39.53;;;8.30;;
24857;SDS011;12935;50.782;6.074;2023-04-25T12:05:43;25.25;;;5.38;;
24857;SDS011;12935;50.782;6.074;2023-04-25T12:08:10;20.60;;;4.72;;
24857;SDS011;12935;50.782;6.074;2023-04-25T12:10:40;29.55;;;5.60;;
24857;SDS011;12935;50.782;6.074;2023-04-25T12:13:23;24.40;;;5.25;;
24857;SDS011;12935;50.782;6.074;2023-04-25T12:15:49;22.30;;;5.28;;
24857;SDS011;12935;50.782;6.074;2023-04-25T12:18:18;28.43;;;5.70;;
24857;SDS011;12935;50.782;6.074;2023-04-25T12:20:44;20.10;;;4.95;;
24857;SDS011;12935;50.782;6.074;2023-04-25T12:23:10;17.77;;;4.77;;
24857;SDS011;12935;50.782;6.074;2023-04-25T12:25:43;37.55;;;7.68;;
24857;SDS011;12935;50.782;6.074;2023-04-25T12:28:21;19.70;;;5.75;;
24857;SDS011;12935;50.782;6.074;2023-04-25T12:33:23;29.80;;;7.07;;
24857;SDS011;12935;50.782;6.074;2023-04-25T12:35:49;19.52;;;6.95;;
24857;SDS011;12935;50.782;6.074;2023-04-25T12:38:48;15.33;;;5.57;;
24857;SDS011;12935;50.782;6.074;2023-04-25T12:41:07;21.70;;;6.10;;
24857;SDS011;12935;50.782;6.074;2023-04-25T12:43:33;20.00;;;6.10;;
24857;SDS011;12935;50.782;6.074;2023-04-25T12:45:58;22.47;;;6.80;;
24857;SDS011;12935;50.782;6.074;2023-04-25T12:48:24;17.00;;;7.63;;
24857;SDS011;12935;50.782;6.074;2023-04-25T12:50:49;17.57;;;6.47;;
24857;SDS011;12935;50.782;6.074;2023-04-25T12:53:17;15.87;;;6.73;;
24857;SDS011;12935;50.782;6.074;2023-04-25T12:55:46;14.43;;;5.60;;
24857;SDS011;12935;50.782;6.074;2023-04-25T12:58:12;22.00;;;7.30;;
24857;SDS011;12935;50.782;6.074;2023-04-25T13:00:38;27.40;;;8.00;;
24857;SDS011;12935;50.782;6.074;2023-04-25T13:03:03;13.47;;;7.10;;
24857;SDS011;12935;50.782;6.074;2023-04-25T13:05:29;25.27;;;8.33;;
24857;SDS011;12935;50.782;6.074;2023-04-25T13:07:55;20.33;;;7.63;;
24857;SDS011;12935;50.782;6.074;2023-04-25T13:10:20;15.57;;;7.50;;
24857;SDS011;12935;50.782;6.074;2023-04-25T13:12:46;19.37;;;7.53;;
24857;SDS011;12935;50.782;6.074;2023-04-25T13:15:11;25.30;;;8.23;;
24857;SDS011;12935;50.782;6.074;2023-04-25T13:17:37;24.60;;;8.90;;
24857;SDS011;12935;50.782;6.074;2023-04-25T13:20:03;13.00;;;8.90;;
24857;SDS011;12935;50.782;6.074;2023-04-25T13:22:33;21.23;;;9.67;;
24857;SDS011;12935;50.782;6.074;2023-04-25T13:25:01;20.13;;;10.80;;
24857;SDS011;12935;50.782;6.074;2023-04-25T13:27:27;20.30;;;12.10;;
24857;SDS011;12935;50.782;6.074;2023-04-25T13:29:52;23.23;;;14.23;;
24857;SDS011;12935;50.782;6.074;2023-04-25T13:32:17;35.87;;;14.33;;
24857;SDS011;12935;50.782;6.074;2023-04-25T13:34:42;24.67;;;13.60;;
24857;SDS011;12935;50.782;6.074;2023-04-25T13:37:08;17.73;;;12.27;;
24857;SDS011;12935;50.782;6.074;2023-04-25T13:39:33;37.87;;;14.10;;
24857;SDS011;12935;50.782;6.074;2023-04-25T13:41:58;21.07;;;10.53;;
24857;SDS011;12935;50.782;6.074;2023-04-25T13:44:23;17.10;;;10.23;;
24857;SDS011;12935;50.782;6.074;2023-04-25T13:46:49;27.63;;;10.40;;
24857;SDS011;12935;50.782;6.074;2023-04-25T13:49:14;25.27;;;8.80;;
24857;SDS011;12935;50.782;6.074;2023-04-25T13:51:40;24.10;;;8.50;;
24857;SDS011;12935;50.782;6.074;2023-04-25T13:54:07;13.37;;;6.47;;
24857;SDS011;12935;50.782;6.074;2023-04-25T13:56:32;21.40;;;7.10;;
24857;SDS011;12935;50.782;6.074;2023-04-25T13:58:58;33.67;;;8.40;;
24857;SDS011;12935;50.782;6.074;2023-04-25T14:01:23;24.53;;;6.33;;
24857;SDS011;12935;50.782;6.074;2023-04-25T14:03:48;25.47;;;7.60;;
24857;SDS011;12935;50.782;6.074;2023-04-25T14:06:13;30.60;;;7.13;;
24857;SDS011;12935;50.782;6.074;2023-04-25T14:08:42;26.07;;;6.30;;
24857;SDS011;12935;50.782;6.074;2023-04-25T14:11:07;30.50;;;6.50;;
24857;SDS011;12935;50.782;6.074;2023-04-25T14:13:32;26.57;;;6.07;;
24857;SDS011;12935;50.782;6.074;2023-04-25T14:15:57;18.20;;;5.07;;
24857;SDS011;12935;50.782;6.074;2023-04-25T14:18:23;25.40;;;5.87;;
24857;SDS011;12935;50.782;6.074;2023-04-25T14:20:48;25.50;;;5.93;;
24857;SDS011;12935;50.782;6.074;2023-04-25T14:23:13;19.23;;;5.30;;
24857;SDS011;12935;50.782;6.074;2023-04-25T14:25:38;32.30;;;6.73;;
24857;SDS011;12935;50.782;6.074;2023-04-25T14:28:05;170.63;;;23.00;;
24857;SDS011;12935;50.782;6.074;2023-04-25T14:30:30;19.33;;;5.13;;
24857;SDS011;12935;50.782;6.074;2023-04-25T14:32:55;21.17;;;5.87;;
24857;SDS011;12935;50.782;6.074;2023-04-25T14:35:20;16.07;;;5.70;;
24857;SDS011;12935;50.782;6.074;2023-04-25T14:37:46;13.90;;;5.10;;
24857;SDS011;12935;50.782;6.074;2023-04-25T14:40:11;20.97;;;5.20;;